createdAt,value
2023-03-04T00:01:21.334Z,21.80
2023-03-04T00:03:51.778Z,21.90
2023-03-04T00:06:22.561Z,21.90
2023-03-04T00:08:52.819Z,22.00
2023-03-04T00:11:24.070Z,22.00
2023-03-04T00:13:54.854Z,22.00
2023-03-04T00:16:25.488Z,22.00
2023-03-04T00:18:56.986Z,22.10
2023-03-04T00:21:27.666Z,22.00
2023-03-04T00:23:58.102Z,22.10
2023-03-04T00:26:28.349Z,22.00
2023-03-04T00:28:58.634Z,22.00
2023-03-04T00:31:29.444Z,21.90
2023-03-04T00:33:59.745Z,21.90
2023-03-04T00:36:30.270Z,22.00
2023-03-04T00:39:00.534Z,21.90
2023-03-04T00:41:30.820Z,22.00
2023-03-04T00:44:01.739Z,22.00
2023-03-04T00:46:35.654Z,22.10
2023-03-04T00:49:06.260Z,22.00
2023-03-04T00:51:37.974Z,22.00
2023-03-04T00:54:08.641Z,22.10
2023-03-04T00:56:41.298Z,22.10
2023-03-04T00:59:12.813Z,22.20
2023-03-04T01:01:44.779Z,22.20
2023-03-04T01:04:16.673Z,22.30
2023-03-04T01:06:47.158Z,22.40
2023-03-04T01:09:18.195Z,22.60
2023-03-04T01:11:48.665Z,22.70
2023-03-04T01:14:19.286Z,22.80
2023-03-04T01:16:52.736Z,22.80
2023-03-04T01:19:23.884Z,22.90
2023-03-04T01:21:54.560Z,23.00
2023-03-04T01:24:25.311Z,23.20
2023-03-04T01:26:55.874Z,23.40
2023-03-04T01:29:28.096Z,23.70
2023-03-04T01:32:01.143Z,23.90
2023-03-04T01:34:33.015Z,24.00
2023-03-04T01:37:03.741Z,24.10
2023-03-04T01:39:34.112Z,24.20
2023-03-04T01:42:04.714Z,24.50
2023-03-04T01:44:35.356Z,24.80
2023-03-04T01:47:05.740Z,25.10
2023-03-04T01:49:40.088Z,25.20
2023-03-04T01:52:19.008Z,25.10
2023-03-04T01:54:50.436Z,25.10
2023-03-04T01:57:25.859Z,25.20
2023-03-04T02:00:20.496Z,25.00
2023-03-04T02:02:55.735Z,24.90
2023-03-04T02:05:27.135Z,24.70
2023-03-04T02:07:59.883Z,24.70
2023-03-04T02:10:30.451Z,25.00
2023-03-04T02:13:03.079Z,25.20
2023-03-04T02:15:34.052Z,25.30
2023-03-04T02:18:22.309Z,25.40
2023-03-04T02:21:33.331Z,25.40
2023-03-04T02:24:42.073Z,25.70
2023-03-04T02:27:12.519Z,25.90
2023-03-04T02:29:43.944Z,25.70
2023-03-04T02:32:16.764Z,25.80
2023-03-04T02:34:52.659Z,25.90
2023-03-04T02:37:23.916Z,26.10
2023-03-04T02:39:54.852Z,26.30
2023-03-04T02:42:26.649Z,26.50
2023-03-04T02:45:04.279Z,26.60
2023-03-04T02:47:35.002Z,26.70
2023-03-04T02:50:05.284Z,26.90
2023-03-04T02:52:35.614Z,27.10
2023-03-04T02:55:06.176Z,27.20
2023-03-04T02:57:37.058Z,27.10
2023-03-04T03:00:08.247Z,26.70
2023-03-04T03:02:40.108Z,26.30
2023-03-04T03:05:12.429Z,26.10
2023-03-04T03:07:44.154Z,26.10
2023-03-04T03:10:16.114Z,26.00
2023-03-04T03:12:46.374Z,25.80
2023-03-04T03:15:17.904Z,25.80
2023-03-04T03:17:48.364Z,25.80
2023-03-04T03:20:20.498Z,25.80
2023-03-04T03:22:51.003Z,25.80
2023-03-04T03:25:22.620Z,25.70
2023-03-04T03:27:52.981Z,25.50
2023-03-04T03:30:23.955Z,25.50
2023-03-04T03:32:54.271Z,25.60
2023-03-04T03:35:24.664Z,25.80
2023-03-04T03:37:55.421Z,26.00
2023-03-04T03:40:25.785Z,26.30
2023-03-04T03:42:56.613Z,26.40
2023-03-04T03:45:27.889Z,26.50
2023-03-04T03:48:00.353Z,26.60
2023-03-04T03:50:33.493Z,26.80
2023-03-04T03:53:04.824Z,26.90
2023-03-04T03:55:35.418Z,27.00
2023-03-04T03:58:05.627Z,27.10
2023-03-04T04:00:36.154Z,27.20
2023-03-04T04:03:06.793Z,27.20
2023-03-04T04:05:52.495Z,27.20
2023-03-04T04:08:32.251Z,27.00
2023-03-04T04:11:03.584Z,26.70
2023-03-04T04:13:34.394Z,26.70
2023-03-04T04:16:05.856Z,26.70
2023-03-04T04:18:36.251Z,26.90
2023-03-04T04:21:07.550Z,26.90
2023-03-04T04:23:37.888Z,26.90
2023-03-04T04:26:08.373Z,26.80
2023-03-04T04:28:38.667Z,26.80
2023-03-04T04:31:12.950Z,26.90
2023-03-04T04:33:45.423Z,27.00
2023-03-04T04:36:19.834Z,27.00
2023-03-04T04:38:51.121Z,26.90
2023-03-04T04:41:35.259Z,26.70
2023-03-04T04:44:06.379Z,26.60
2023-03-04T04:46:37.821Z,26.40
2023-03-04T04:49:08.968Z,26.30
2023-03-04T04:51:41.525Z,26.10
2023-03-04T04:54:12.479Z,26.00
2023-03-04T04:56:44.096Z,25.80
2023-03-04T04:59:14.520Z,25.70
2023-03-04T05:01:45.046Z,25.60
2023-03-04T05:04:15.426Z,25.50
2023-03-04T05:06:45.694Z,25.50
2023-03-04T05:09:17.020Z,25.50
2023-03-04T05:11:47.531Z,25.70
2023-03-04T05:14:17.840Z,25.70
2023-03-04T05:16:48.302Z,25.80
2023-03-04T05:19:18.625Z,25.80
2023-03-04T05:21:49.793Z,25.90
2023-03-04T05:24:20.504Z,26.00
2023-03-04T05:26:51.672Z,25.90
2023-03-04T05:29:22.448Z,25.60
2023-03-04T05:31:52.685Z,25.50
2023-03-04T05:34:24.269Z,25.40
2023-03-04T05:36:55.992Z,25.30
2023-03-04T05:39:29.214Z,25.30
2023-03-04T05:41:59.637Z,25.30
2023-03-04T05:44:29.938Z,25.30
2023-03-04T05:47:00.166Z,25.30
2023-03-04T05:49:30.446Z,25.40
2023-03-04T05:52:00.892Z,25.50
2023-03-04T05:54:31.568Z,25.70
2023-03-04T05:57:02.143Z,25.70
2023-03-04T05:59:32.388Z,25.70
2023-03-04T06:02:02.682Z,25.60
2023-03-04T06:04:34.242Z,25.50
2023-03-04T06:07:05.134Z,25.40
2023-03-04T06:09:35.828Z,25.30
2023-03-04T06:12:06.655Z,25.20
2023-03-04T06:14:37.137Z,25.20
2023-03-04T06:17:08.051Z,25.20
2023-03-04T06:19:39.957Z,25.00
2023-03-04T06:22:11.820Z,24.90
2023-03-04T06:24:42.622Z,24.80
2023-03-04T06:27:13.414Z,24.70
2023-03-04T06:29:43.683Z,24.70
2023-03-04T06:32:14.544Z,24.70
2023-03-04T06:34:45.279Z,24.60
2023-03-04T06:37:16.134Z,24.60
2023-03-04T06:39:46.993Z,24.50
2023-03-04T06:42:17.834Z,24.60
2023-03-04T06:44:48.124Z,24.60
2023-03-04T06:47:20.670Z,24.60
2023-03-04T06:49:51.037Z,24.60
2023-03-04T06:52:21.939Z,24.60
2023-03-04T06:54:52.678Z,24.50
2023-03-04T06:57:23.327Z,24.50
2023-03-04T06:59:54.771Z,24.50
2023-03-04T07:02:26.110Z,24.50
2023-03-04T07:04:56.752Z,24.50
2023-03-04T07:07:28.412Z,24.50
2023-03-04T07:09:59.230Z,24.40
2023-03-04T07:12:30.588Z,24.30
2023-03-04T07:15:00.868Z,24.20
2023-03-04T07:17:31.150Z,24.10
2023-03-04T07:20:01.880Z,24.00
2023-03-04T07:22:32.523Z,23.90
2023-03-04T07:25:03.177Z,23.80
2023-03-04T07:27:33.458Z,23.70
2023-03-04T07:30:04.083Z,23.60
2023-03-04T07:32:36.591Z,23.50
2023-03-04T07:35:07.165Z,23.50
2023-03-04T07:37:37.546Z,23.40
2023-03-04T07:40:09.846Z,23.40
2023-03-04T07:42:41.239Z,23.30
2023-03-04T07:45:12.539Z,23.30
2023-03-04T07:47:43.172Z,23.30
2023-03-04T07:50:17.875Z,23.20
2023-03-04T07:52:53.008Z,23.20
2023-03-04T07:55:23.373Z,23.10
2023-03-04T07:57:54.062Z,23.00
2023-03-04T08:00:25.106Z,23.00
2023-03-04T08:02:55.363Z,23.00
2023-03-04T08:05:26.093Z,23.00
2023-03-04T08:07:59.930Z,23.00
2023-03-04T08:10:30.679Z,23.00
2023-03-04T08:13:01.074Z,22.90
2023-03-04T08:15:34.498Z,22.90
2023-03-04T08:18:05.075Z,22.90
2023-03-04T08:20:35.383Z,22.90
2023-03-04T08:23:05.874Z,22.80
2023-03-04T08:25:36.612Z,22.80
2023-03-04T08:28:07.475Z,22.70
2023-03-04T08:30:38.269Z,22.70
2023-03-04T08:33:09.357Z,22.70
2023-03-04T08:35:43.117Z,22.70
2023-03-04T08:38:14.155Z,22.60
2023-03-04T08:40:44.522Z,22.60
2023-03-04T08:43:15.220Z,22.60
2023-03-04T08:45:46.206Z,22.50
2023-03-04T08:48:16.633Z,22.40
2023-03-04T08:50:49.084Z,22.40
2023-03-04T08:53:21.375Z,22.40
2023-03-04T08:55:53.685Z,22.40
2023-03-04T08:58:24.241Z,22.40
2023-03-04T09:00:54.964Z,22.40
2023-03-04T09:03:25.631Z,22.30
2023-03-04T09:05:56.712Z,22.30
2023-03-04T09:08:32.880Z,22.20
2023-03-04T09:11:03.560Z,22.20
2023-03-04T09:13:34.968Z,22.20
2023-03-04T09:16:06.453Z,22.20
2023-03-04T09:18:36.745Z,22.20
2023-03-04T09:21:07.387Z,22.10
2023-03-04T09:23:38.920Z,22.10
2023-03-04T09:26:23.492Z,22.10
2023-03-04T09:28:56.109Z,22.00
2023-03-04T09:31:27.439Z,22.00
2023-03-04T09:33:59.642Z,22.00
2023-03-04T09:36:29.994Z,22.00
2023-03-04T09:39:03.492Z,22.00
2023-03-04T09:41:54.724Z,22.00
2023-03-04T09:44:39.319Z,22.00
2023-03-04T09:47:18.171Z,22.00
2023-03-04T09:49:56.697Z,22.00
2023-03-04T09:53:04.532Z,22.00
2023-03-04T09:55:42.565Z,21.90
2023-03-04T09:58:25.658Z,21.80
2023-03-04T10:01:10.265Z,21.80
2023-03-04T10:03:53.015Z,21.90
2023-03-04T10:06:27.462Z,21.80
2023-03-04T10:09:35.592Z,21.80
2023-03-04T10:12:34.820Z,21.70
2023-03-04T10:15:30.996Z,21.70
2023-03-04T10:18:28.409Z,21.70
2023-03-04T10:21:04.862Z,21.60
2023-03-04T10:23:36.496Z,21.60
2023-03-04T10:26:23.154Z,21.50
2023-03-04T10:28:54.217Z,21.40
2023-03-04T10:31:45.395Z,21.40
2023-03-04T10:34:18.873Z,21.40
2023-03-04T10:37:08.813Z,21.30
2023-03-04T10:39:40.100Z,21.20
2023-03-04T10:42:16.647Z,21.30
2023-03-04T10:45:01.977Z,21.30
2023-03-04T10:47:36.954Z,21.30
2023-03-04T10:50:09.037Z,21.20
2023-03-04T10:52:49.121Z,21.20
2023-03-04T10:55:46.618Z,21.20
2023-03-04T10:58:21.073Z,21.10
2023-03-04T11:01:17.214Z,21.10
2023-03-04T11:03:52.067Z,21.00
2023-03-04T11:06:24.913Z,21.00
2023-03-04T11:09:02.382Z,20.90
2023-03-04T11:11:46.448Z,20.80
2023-03-04T11:14:39.540Z,20.80
2023-03-04T11:17:32.090Z,20.80
2023-03-04T11:20:22.477Z,20.70
2023-03-04T11:22:55.193Z,20.70
2023-03-04T11:25:39.078Z,20.60
2023-03-04T11:28:28.954Z,20.50
2023-03-04T11:31:07.059Z,20.50
2023-03-04T11:33:37.687Z,20.50
2023-03-04T11:36:25.813Z,20.40
2023-03-04T11:39:00.104Z,20.40
2023-03-04T11:41:37.956Z,20.40
2023-03-04T11:44:16.002Z,20.40
2023-03-04T11:47:04.350Z,20.40
2023-03-04T11:50:11.296Z,20.40
2023-03-04T11:53:04.410Z,20.30
2023-03-04T11:56:03.382Z,20.30
2023-03-04T11:58:49.084Z,20.20
2023-03-04T12:01:29.688Z,20.20
2023-03-04T12:04:18.005Z,20.20
2023-03-04T12:06:57.871Z,20.20
2023-03-04T12:09:34.518Z,20.10
2023-03-04T12:12:36.730Z,20.10
2023-03-04T12:15:33.225Z,20.00
2023-03-04T12:18:26.071Z,20.00
2023-03-04T12:21:19.664Z,19.90
2023-03-04T12:24:17.112Z,19.90
2023-03-04T12:27:25.237Z,19.80
2023-03-04T12:30:05.677Z,19.80
2023-03-04T12:32:48.984Z,19.70
2023-03-04T12:35:44.961Z,19.60
2023-03-04T12:38:47.438Z,19.60
2023-03-04T12:41:28.965Z,19.60
2023-03-04T12:44:21.216Z,19.50
2023-03-04T12:47:14.336Z,19.50
2023-03-04T12:49:58.540Z,19.50
2023-03-04T12:52:57.736Z,19.40
2023-03-04T12:55:43.629Z,19.40
2023-03-04T12:58:21.379Z,19.30
2023-03-04T13:01:14.402Z,19.30
2023-03-04T13:04:14.653Z,19.30
2023-03-04T13:07:08.238Z,19.30
2023-03-04T13:10:16.929Z,19.30
2023-03-04T13:12:51.021Z,19.20
2023-03-04T13:15:27.347Z,19.20
2023-03-04T13:18:34.346Z,19.20
2023-03-04T13:21:27.742Z,19.20
2023-03-04T13:23:59.245Z,19.10
2023-03-04T13:26:38.777Z,19.10
2023-03-04T13:29:20.997Z,19.10
2023-03-04T13:32:12.161Z,19.10
2023-03-04T13:34:55.623Z,19.00
2023-03-04T13:37:32.009Z,19.00
2023-03-04T13:40:26.838Z,18.90
2023-03-04T13:42:58.556Z,18.90
2023-03-04T13:45:36.161Z,18.80
2023-03-04T13:48:24.821Z,18.80
2023-03-04T13:50:56.894Z,18.70
2023-03-04T13:53:46.826Z,18.70
2023-03-04T13:56:30.993Z,18.60
2023-03-04T13:59:11.463Z,18.60
2023-03-04T14:01:47.866Z,18.60
2023-03-04T14:04:35.686Z,18.50
2023-03-04T14:07:32.281Z,18.50
2023-03-04T14:10:07.895Z,18.50
2023-03-04T14:12:47.248Z,18.50
2023-03-04T14:15:31.202Z,18.40
2023-03-04T14:18:04.650Z,18.40
2023-03-04T14:20:44.834Z,18.30
2023-03-04T14:23:38.483Z,18.30
2023-03-04T14:26:17.507Z,18.20
2023-03-04T14:28:51.827Z,18.20
2023-03-04T14:31:26.999Z,18.20
2023-03-04T14:34:04.188Z,18.20
2023-03-04T14:36:40.590Z,18.10
2023-03-04T14:39:17.056Z,18.10
2023-03-04T14:41:50.528Z,18.10
2023-03-04T14:44:49.038Z,18.00
2023-03-04T14:47:27.219Z,18.10
2023-03-04T14:49:59.153Z,18.00
2023-03-04T14:52:40.968Z,18.00
2023-03-04T14:55:17.830Z,17.90
2023-03-04T14:57:53.048Z,17.90
2023-03-04T15:00:23.800Z,17.80
2023-03-04T15:03:01.818Z,17.70
2023-03-04T15:05:37.622Z,17.70
2023-03-04T15:08:34.973Z,17.70
2023-03-04T15:11:08.320Z,17.60
2023-03-04T15:13:49.036Z,17.60
2023-03-04T15:16:25.064Z,17.60
2023-03-04T15:19:07.958Z,17.60
2023-03-04T15:21:43.483Z,17.50
2023-03-04T15:24:15.670Z,17.50
2023-03-04T15:26:48.955Z,17.50
2023-03-04T15:29:24.951Z,17.50
2023-03-04T15:31:55.812Z,17.50
2023-03-04T15:34:26.123Z,17.40
2023-03-04T15:36:59.316Z,17.40
2023-03-04T15:39:30.496Z,17.40
2023-03-04T15:42:01.285Z,17.30
2023-03-04T15:44:32.033Z,17.30
2023-03-04T15:47:02.838Z,17.30
2023-03-04T15:49:33.481Z,17.20
2023-03-04T15:52:08.533Z,17.30
2023-03-04T15:54:41.261Z,17.30
2023-03-04T15:57:29.266Z,17.30
2023-03-04T16:00:00.591Z,17.20
2023-03-04T16:02:31.776Z,17.20
2023-03-04T16:05:02.419Z,17.10
2023-03-04T16:07:33.990Z,17.10
2023-03-04T16:10:12.614Z,17.00
2023-03-04T16:12:43.525Z,17.00
2023-03-04T16:15:34.675Z,17.00
2023-03-04T16:18:05.544Z,17.00
2023-03-04T16:20:36.066Z,17.00
2023-03-04T16:23:06.878Z,16.90
2023-03-04T16:25:37.130Z,16.90
2023-03-04T16:28:08.979Z,16.90
2023-03-04T16:30:39.246Z,16.90
2023-03-04T16:33:09.866Z,16.80
2023-03-04T16:35:41.666Z,16.80
2023-03-04T16:38:34.438Z,16.90
2023-03-04T16:41:04.915Z,16.90
2023-03-04T16:43:35.586Z,16.90
2023-03-04T16:46:06.245Z,16.90
2023-03-04T16:48:37.410Z,16.90
2023-03-04T16:51:16.028Z,16.80
2023-03-04T16:53:54.789Z,16.80
2023-03-04T16:56:27.482Z,16.80
2023-03-04T16:58:58.283Z,16.70
2023-03-04T17:01:32.592Z,16.70
2023-03-04T17:04:03.508Z,16.60
2023-03-04T17:06:37.236Z,16.70
2023-03-04T17:09:09.638Z,16.60
2023-03-04T17:11:40.963Z,16.60
2023-03-04T17:14:12.792Z,16.60
2023-03-04T17:16:43.520Z,16.60
2023-03-04T17:19:14.814Z,16.60
2023-03-04T17:21:46.642Z,16.60
2023-03-04T17:24:17.173Z,16.50
2023-03-04T17:26:47.452Z,16.50
2023-03-04T17:29:18.355Z,16.50
2023-03-04T17:31:48.735Z,16.50
2023-03-04T17:34:21.922Z,16.40
2023-03-04T17:36:52.555Z,16.50
2023-03-04T17:39:23.720Z,16.40
2023-03-04T17:41:55.758Z,16.40
2023-03-04T17:44:27.920Z,16.40
2023-03-04T17:46:59.187Z,16.40
2023-03-04T17:49:30.310Z,16.40
2023-03-04T17:52:01.013Z,16.30
2023-03-04T17:54:31.382Z,16.30
2023-03-04T17:57:01.664Z,16.30
2023-03-04T17:59:31.964Z,16.20
2023-03-04T18:02:02.729Z,16.20
2023-03-04T18:04:34.267Z,16.20
2023-03-04T18:07:04.504Z,16.20
2023-03-04T18:09:34.801Z,16.20
2023-03-04T18:12:05.528Z,16.20
2023-03-04T18:14:36.292Z,16.10
2023-03-04T18:17:07.051Z,16.20
2023-03-04T18:19:37.859Z,16.20
2023-03-04T18:22:08.477Z,16.20
2023-03-04T18:24:41.972Z,16.20
2023-03-04T18:27:12.443Z,16.10
2023-03-04T18:29:43.370Z,16.10
2023-03-04T18:32:13.739Z,16.10
2023-03-04T18:34:44.632Z,16.10
2023-03-04T18:37:15.392Z,16.10
2023-03-04T18:39:46.558Z,16.10
2023-03-04T18:42:16.808Z,16.10
2023-03-04T18:44:47.165Z,16.00
2023-03-04T18:47:17.542Z,16.00
2023-03-04T18:49:49.710Z,15.90
2023-03-04T18:52:19.959Z,15.90
2023-03-04T18:54:50.546Z,15.90
2023-03-04T18:57:20.856Z,15.90
2023-03-04T18:59:55.608Z,15.90
2023-03-04T19:02:30.495Z,15.80
2023-03-04T19:05:07.304Z,15.80
2023-03-04T19:07:38.050Z,15.80
2023-03-04T19:10:09.314Z,15.80
2023-03-04T19:12:39.926Z,15.70
2023-03-04T19:15:12.340Z,15.80
2023-03-04T19:17:43.518Z,15.80
2023-03-04T19:20:18.040Z,15.80
2023-03-04T19:22:48.493Z,15.90
2023-03-04T19:25:19.349Z,15.90
2023-03-04T19:27:49.681Z,15.90
2023-03-04T19:30:20.708Z,15.90
2023-03-04T19:32:51.627Z,15.90
2023-03-04T19:35:23.214Z,15.90
2023-03-04T19:37:53.898Z,15.80
2023-03-04T19:40:25.214Z,15.70
2023-03-04T19:42:57.329Z,15.70
2023-03-04T19:45:27.740Z,15.70
2023-03-04T19:47:59.102Z,15.70
2023-03-04T19:50:30.254Z,15.60
2023-03-04T19:53:01.121Z,15.60
2023-03-04T19:55:32.233Z,15.60
2023-03-04T19:58:02.464Z,15.50
2023-03-04T20:00:32.881Z,15.50
2023-03-04T20:03:04.076Z,15.60
2023-03-04T20:05:34.797Z,15.50
2023-03-04T20:08:05.842Z,15.60
2023-03-04T20:10:39.347Z,15.60
2023-03-04T20:13:11.402Z,15.60
2023-03-04T20:15:46.412Z,15.60
2023-03-04T20:18:17.148Z,15.60
2023-03-04T20:20:48.564Z,15.60
2023-03-04T20:23:21.870Z,15.60
2023-03-04T20:25:52.334Z,15.60
2023-03-04T20:28:22.623Z,15.60
2023-03-04T20:30:53.928Z,15.60
2023-03-04T20:33:24.665Z,15.60
2023-03-04T20:35:55.461Z,15.70
2023-03-04T20:38:32.056Z,15.70
2023-03-04T20:41:02.858Z,15.70
2023-03-04T20:43:33.321Z,15.70
2023-03-04T20:46:43.706Z,15.70
2023-03-04T20:49:23.765Z,15.70
2023-03-04T20:51:57.785Z,15.80
2023-03-04T20:54:29.295Z,15.80
2023-03-04T20:56:59.690Z,15.90
2023-03-04T20:59:30.168Z,16.00
2023-03-04T21:02:01.597Z,16.10
2023-03-04T21:04:33.653Z,16.30
2023-03-04T21:07:05.498Z,16.40
2023-03-04T21:09:35.839Z,16.60
2023-03-04T21:12:06.978Z,16.70
2023-03-04T21:14:37.232Z,16.80
2023-03-04T21:17:08.007Z,16.80
2023-03-04T21:19:45.141Z,17.00
2023-03-04T21:22:21.150Z,17.00
2023-03-04T21:24:51.801Z,17.10
2023-03-04T21:27:22.582Z,17.20
2023-03-04T21:29:53.299Z,17.30
2023-03-04T21:32:28.624Z,17.30
2023-03-04T21:34:59.591Z,17.40
2023-03-04T21:37:29.835Z,17.40
2023-03-04T21:40:02.867Z,17.40
2023-03-04T21:42:33.635Z,17.40
2023-03-04T21:45:05.180Z,17.50
2023-03-04T21:47:36.901Z,17.50
2023-03-04T21:50:08.056Z,17.40
2023-03-04T21:52:39.161Z,17.40
2023-03-04T21:55:10.170Z,17.40
2023-03-04T21:57:42.335Z,17.40
2023-03-04T22:00:13.803Z,17.40
2023-03-04T22:02:44.796Z,17.40
2023-03-04T22:05:16.539Z,17.50
2023-03-04T22:07:47.833Z,17.60
2023-03-04T22:10:18.256Z,17.80
2023-03-04T22:12:48.724Z,18.00
2023-03-04T22:15:19.461Z,18.20
2023-03-04T22:17:49.822Z,18.40
2023-03-04T22:20:20.813Z,18.40
2023-03-04T22:22:51.039Z,18.70
2023-03-04T22:25:21.877Z,18.90
2023-03-04T22:27:52.854Z,19.10
2023-03-04T22:30:23.619Z,19.20
2023-03-04T22:32:54.040Z,19.20
2023-03-04T22:35:24.325Z,19.20
2023-03-04T22:37:55.584Z,19.30
2023-03-04T22:40:26.400Z,19.40
2023-03-04T22:42:57.307Z,19.40
2023-03-04T22:45:31.240Z,19.40
2023-03-04T22:48:02.767Z,19.40
2023-03-04T22:50:33.094Z,19.40
2023-03-04T22:53:03.551Z,19.50
2023-03-04T22:55:34.486Z,19.70
2023-03-04T22:58:06.457Z,19.90
2023-03-04T23:00:37.335Z,20.20
2023-03-04T23:03:08.414Z,20.40
2023-03-04T23:05:39.031Z,20.60
2023-03-04T23:08:10.003Z,20.70
2023-03-04T23:10:43.991Z,20.90
2023-03-04T23:13:14.706Z,21.00
2023-03-04T23:15:45.417Z,21.10
2023-03-04T23:18:16.138Z,21.30
2023-03-04T23:20:46.844Z,21.50
2023-03-04T23:23:17.174Z,21.80
2023-03-04T23:25:48.030Z,22.10
2023-03-04T23:28:18.289Z,22.40
2023-03-04T23:30:48.640Z,22.50
2023-03-04T23:33:18.928Z,22.70
2023-03-04T23:35:49.909Z,22.90
2023-03-04T23:38:29.673Z,22.80
2023-03-04T23:40:59.995Z,22.70
2023-03-04T23:43:31.867Z,22.60
2023-03-04T23:46:02.356Z,22.60
2023-03-04T23:48:34.128Z,22.60
2023-03-04T23:51:04.359Z,22.90
2023-03-04T23:53:40.762Z,23.10
2023-03-04T23:56:17.326Z,23.40
2023-03-04T23:58:48.575Z,23.60
